createdAt,value
2022-12-27T00:01:33.831Z,51.88
2022-12-27T00:04:00.594Z,51.13
2022-12-27T00:06:27.946Z,51.60
2022-12-27T00:08:55.199Z,51.89
2022-12-27T00:11:23.408Z,50.95
2022-12-27T00:13:50.131Z,51.16
2022-12-27T00:16:19.076Z,51.64
2022-12-27T00:18:46.492Z,52.21
2022-12-27T00:21:13.857Z,51.73
2022-12-27T00:23:42.617Z,52.15
2022-12-27T00:26:11.801Z,52.05
2022-12-27T00:28:38.352Z,51.50
2022-12-27T00:31:07.768Z,51.92
2022-12-27T00:33:35.067Z,52.32
2022-12-27T00:36:02.833Z,52.35
2022-12-27T00:38:29.481Z,52.83
2022-12-27T00:40:56.245Z,53.13
2022-12-27T00:43:23.686Z,53.23
2022-12-27T00:45:50.352Z,52.99
2022-12-27T00:48:18.039Z,52.87
2022-12-27T00:50:45.271Z,53.24
2022-12-27T00:53:12.632Z,53.13
2022-12-27T00:55:39.129Z,53.19
2022-12-27T00:58:05.723Z,53.80
2022-12-27T01:00:32.299Z,53.28
2022-12-27T01:02:58.801Z,53.27
2022-12-27T01:05:25.340Z,53.31
2022-12-27T01:07:52.253Z,53.94
2022-12-27T01:10:20.077Z,53.35
2022-12-27T01:12:46.683Z,54.21
2022-12-27T01:15:13.295Z,53.92
2022-12-27T01:17:40.007Z,54.13
2022-12-27T01:20:07.289Z,54.74
2022-12-27T01:22:33.725Z,54.25
2022-12-27T01:25:00.328Z,54.94
2022-12-27T01:27:26.905Z,55.00
2022-12-27T01:29:54.033Z,55.06
2022-12-27T01:32:22.332Z,54.90
2022-12-27T01:34:49.981Z,54.79
2022-12-27T01:37:16.628Z,54.73
2022-12-27T01:39:43.137Z,55.28
2022-12-27T01:42:35.328Z,55.67
2022-12-27T01:45:02.356Z,55.22
2022-12-27T01:47:44.582Z,55.54
2022-12-27T01:50:29.108Z,55.54
2022-12-27T01:52:58.748Z,55.46
2022-12-27T01:55:30.128Z,55.15
2022-12-27T01:57:59.819Z,55.78
2022-12-27T02:00:26.547Z,55.83
2022-12-27T02:02:53.242Z,55.48
2022-12-27T02:05:21.827Z,55.55
2022-12-27T02:07:55.123Z,56.01
2022-12-27T02:10:21.979Z,56.23
2022-12-27T02:12:48.493Z,56.71
2022-12-27T02:15:15.347Z,56.67
2022-12-27T02:17:41.876Z,56.58
2022-12-27T02:20:12.692Z,56.76
2022-12-27T02:23:16.639Z,56.74
2022-12-27T02:26:01.936Z,56.46
2022-12-27T02:28:31.197Z,56.58
2022-12-27T02:31:06.363Z,57.54
2022-12-27T02:33:36.383Z,57.50
2022-12-27T02:36:08.807Z,57.57
2022-12-27T02:38:41.053Z,57.83
2022-12-27T02:41:27.421Z,57.87
2022-12-27T02:44:15.904Z,58.14
2022-12-27T02:47:01.615Z,57.81
2022-12-27T02:49:54.084Z,58.27
2022-12-27T02:52:45.556Z,57.78
2022-12-27T02:55:30.722Z,58.34
2022-12-27T02:58:06.461Z,58.49
2022-12-27T03:01:03.847Z,58.70
2022-12-27T03:03:30.349Z,58.55
2022-12-27T03:06:15.579Z,58.54
2022-12-27T03:08:53.996Z,58.72
2022-12-27T03:11:39.190Z,58.71
2022-12-27T03:14:40.947Z,59.02
2022-12-27T03:17:11.815Z,59.17
2022-12-27T03:20:03.237Z,58.71
2022-12-27T03:22:49.697Z,59.21
2022-12-27T03:25:29.081Z,58.56
2022-12-27T03:28:18.160Z,59.19
2022-12-27T03:31:04.937Z,58.37
2022-12-27T03:33:32.765Z,58.61
2022-12-27T03:36:22.108Z,58.72
2022-12-27T03:39:13.349Z,58.61
2022-12-27T03:42:01.324Z,58.51
2022-12-27T03:44:28.031Z,58.29
2022-12-27T03:46:54.551Z,58.75
2022-12-27T03:49:21.731Z,58.54
2022-12-27T03:51:52.218Z,59.21
2022-12-27T03:54:26.706Z,58.85
2022-12-27T03:56:58.766Z,58.36
2022-12-27T03:59:25.756Z,58.18
2022-12-27T04:01:52.612Z,58.29
2022-12-27T04:04:19.224Z,57.76
2022-12-27T04:06:45.815Z,58.13
2022-12-27T04:09:31.397Z,58.64
2022-12-27T04:12:16.580Z,58.73
2022-12-27T04:15:01.975Z,58.97
2022-12-27T04:17:47.204Z,59.00
2022-12-27T04:20:32.270Z,60.00
2022-12-27T04:23:17.652Z,59.43
2022-12-27T04:26:03.964Z,59.85
2022-12-27T04:28:49.282Z,60.43
2022-12-27T04:31:34.753Z,60.04
2022-12-27T04:34:19.782Z,60.37
2022-12-27T04:36:46.829Z,60.37
2022-12-27T04:39:13.722Z,59.80
2022-12-27T04:41:58.767Z,60.48
2022-12-27T04:44:43.930Z,60.22
2022-12-27T04:47:31.753Z,60.20
2022-12-27T04:50:17.004Z,59.76
2022-12-27T04:53:02.260Z,59.80
2022-12-27T04:55:29.553Z,59.99
2022-12-27T04:57:56.749Z,59.92
2022-12-27T05:00:44.544Z,60.43
2022-12-27T05:03:12.745Z,60.09
2022-12-27T05:05:40.452Z,60.98
2022-12-27T05:08:25.673Z,60.78
2022-12-27T05:11:10.983Z,60.78
2022-12-27T05:13:56.323Z,60.71
2022-12-27T05:16:22.880Z,60.77
2022-12-27T05:18:49.426Z,60.87
2022-12-27T05:21:15.917Z,60.42
2022-12-27T05:24:05.394Z,60.40
2022-12-27T05:26:32.781Z,60.65
2022-12-27T05:28:59.882Z,60.73
2022-12-27T05:31:27.925Z,60.58
2022-12-27T05:33:54.568Z,60.48
2022-12-27T05:36:21.484Z,60.54
2022-12-27T05:38:48.045Z,60.84
2022-12-27T05:41:14.582Z,60.34
2022-12-27T05:43:41.463Z,61.16
2022-12-27T05:46:12.186Z,61.63
2022-12-27T05:48:38.951Z,62.23
2022-12-27T05:51:06.599Z,62.26
2022-12-27T05:53:33.279Z,62.17
2022-12-27T05:55:59.897Z,62.02
2022-12-27T05:58:26.889Z,62.57
2022-12-27T06:00:53.624Z,63.29
2022-12-27T06:03:20.720Z,63.73
2022-12-27T06:05:47.722Z,63.83
2022-12-27T06:08:14.346Z,63.91
2022-12-27T06:10:41.114Z,64.19
2022-12-27T06:13:07.837Z,63.78
2022-12-27T06:15:34.412Z,63.47
2022-12-27T06:18:03.505Z,64.04
2022-12-27T06:20:30.272Z,63.92
2022-12-27T06:22:58.448Z,64.31
2022-12-27T06:25:24.904Z,64.31
2022-12-27T06:27:51.419Z,64.13
2022-12-27T06:30:17.897Z,64.19
2022-12-27T06:32:44.414Z,64.24
2022-12-27T06:35:11.302Z,63.77
2022-12-27T06:37:39.233Z,63.85
2022-12-27T06:40:06.082Z,64.22
2022-12-27T06:42:32.630Z,64.80
2022-12-27T06:44:59.112Z,64.56
2022-12-27T06:47:25.686Z,64.60
2022-12-27T06:49:52.184Z,65.13
2022-12-27T06:52:19.552Z,65.21
2022-12-27T06:54:46.278Z,65.15
2022-12-27T06:57:13.087Z,65.73
2022-12-27T06:59:39.542Z,65.62
2022-12-27T07:02:06.270Z,65.77
2022-12-27T07:04:33.009Z,65.27
2022-12-27T07:06:59.572Z,65.16
2022-12-27T07:09:27.012Z,64.41
2022-12-27T07:11:54.099Z,64.83
2022-12-27T07:14:20.607Z,64.41
2022-12-27T07:16:49.042Z,64.12
2022-12-27T07:19:15.603Z,64.11
2022-12-27T07:21:43.052Z,63.69
2022-12-27T07:24:09.793Z,63.61
2022-12-27T07:26:36.355Z,63.11
2022-12-27T07:29:02.940Z,62.99
2022-12-27T07:31:31.699Z,63.13
2022-12-27T07:33:58.928Z,63.74
2022-12-27T07:36:27.721Z,64.09
2022-12-27T07:38:54.744Z,64.79
2022-12-27T07:41:21.473Z,65.16
2022-12-27T07:43:48.086Z,65.18
2022-12-27T07:46:14.687Z,65.36
2022-12-27T07:48:42.107Z,65.86
2022-12-27T07:51:08.673Z,66.04
2022-12-27T07:53:35.868Z,66.36
2022-12-27T07:56:06.877Z,66.35
2022-12-27T07:58:40.508Z,66.41
2022-12-27T08:01:07.849Z,67.11
2022-12-27T08:03:35.509Z,67.50
2022-12-27T08:06:02.361Z,66.62
2022-12-27T08:08:39.472Z,67.05
2022-12-27T08:11:06.167Z,67.33
2022-12-27T08:13:33.206Z,67.23
2022-12-27T08:16:00.031Z,67.29
2022-12-27T08:18:26.729Z,67.13
2022-12-27T08:20:53.226Z,67.01
2022-12-27T08:23:19.841Z,67.39
2022-12-27T08:25:48.713Z,67.25
2022-12-27T08:28:16.649Z,67.42
2022-12-27T08:30:44.549Z,66.86
2022-12-27T08:33:11.838Z,66.60
2022-12-27T08:35:52.682Z,66.26
2022-12-27T08:38:20.447Z,66.11
2022-12-27T08:40:47.011Z,66.22
2022-12-27T08:43:14.250Z,66.04
2022-12-27T08:45:50.099Z,66.16
2022-12-27T08:48:58.849Z,65.55
2022-12-27T08:51:41.155Z,66.12
2022-12-27T08:54:38.751Z,65.68
2022-12-27T08:57:23.570Z,65.34
2022-12-27T09:00:38.457Z,65.32
2022-12-27T09:03:14.505Z,65.56
2022-12-27T09:05:42.169Z,65.67
2022-12-27T09:08:30.975Z,65.05
2022-12-27T09:11:30.557Z,64.90
2022-12-27T09:14:07.408Z,64.13
2022-12-27T09:16:35.756Z,64.08
2022-12-27T09:19:18.178Z,64.36
2022-12-27T09:21:50.746Z,64.00
2022-12-27T09:24:29.533Z,63.95
2022-12-27T09:27:02.648Z,63.87
2022-12-27T09:29:29.183Z,63.84
2022-12-27T09:32:01.838Z,63.15
2022-12-27T09:34:52.895Z,62.50
2022-12-27T09:37:45.211Z,62.47
2022-12-27T09:40:49.316Z,62.43
2022-12-27T09:46:47.304Z,62.30
2022-12-27T09:49:45.360Z,61.96
2022-12-27T09:52:43.295Z,61.38
2022-12-27T09:55:44.277Z,61.07
2022-12-27T09:58:30.272Z,61.30
2022-12-27T10:04:17.767Z,59.72
2022-12-27T10:07:06.369Z,59.95
2022-12-27T10:13:23.071Z,58.33
2022-12-27T10:16:20.712Z,58.28
2022-12-27T10:19:06.061Z,57.37
2022-12-27T10:21:34.415Z,57.21
2022-12-27T10:24:46.117Z,56.78
2022-12-27T10:27:24.825Z,57.74
2022-12-27T10:30:27.214Z,57.75
2022-12-27T10:32:54.109Z,57.78
2022-12-27T10:35:25.123Z,57.59
2022-12-27T10:38:12.133Z,56.52
2022-12-27T10:40:51.839Z,56.45
2022-12-27T10:43:41.551Z,56.38
2022-12-27T10:46:34.913Z,56.32
2022-12-27T10:49:21.334Z,56.28
2022-12-27T10:51:49.329Z,55.98
2022-12-27T10:54:21.687Z,55.88
2022-12-27T10:56:48.447Z,55.69
2022-12-27T10:59:22.723Z,55.42
2022-12-27T11:02:26.343Z,56.18
2022-12-27T11:05:07.501Z,55.74
2022-12-27T11:07:52.664Z,55.58
2022-12-27T11:10:31.548Z,55.55
2022-12-27T11:13:07.375Z,54.90
2022-12-27T11:15:46.898Z,54.92
2022-12-27T11:18:40.565Z,54.30
2022-12-27T11:21:47.321Z,54.46
2022-12-27T11:24:17.912Z,54.31
2022-12-27T11:27:05.405Z,53.95
2022-12-27T11:29:34.960Z,53.67
2022-12-27T11:32:06.843Z,53.54
2022-12-27T11:38:38.807Z,53.36
2022-12-27T11:41:11.333Z,53.15
2022-12-27T11:47:14.885Z,52.51
2022-12-27T11:50:09.855Z,52.14
2022-12-27T13:13:44.151Z,49.34
2022-12-27T13:16:21.365Z,50.18
2022-12-27T13:19:05.862Z,51.01
2022-12-27T13:21:35.401Z,51.72
2022-12-27T13:24:23.717Z,52.31
2022-12-27T13:27:05.536Z,53.40
2022-12-27T13:29:52.638Z,54.50
2022-12-27T13:32:31.567Z,53.19
2022-12-27T13:35:06.857Z,52.67
2022-12-27T13:37:52.494Z,53.08
2022-12-27T13:40:23.157Z,52.99
2022-12-27T13:42:49.686Z,53.20
2022-12-27T13:45:22.297Z,52.79
2022-12-27T13:47:58.323Z,52.72
2022-12-27T13:50:24.758Z,52.35
2022-12-27T13:53:09.523Z,52.49
2022-12-27T13:55:54.825Z,52.33
2022-12-27T13:58:45.132Z,52.54
2022-12-27T14:01:21.442Z,52.64
2022-12-27T14:03:48.112Z,52.85
2022-12-27T14:06:20.912Z,52.30
2022-12-27T14:08:50.735Z,52.39
2022-12-27T14:11:32.772Z,53.02
2022-12-27T14:14:00.827Z,52.74
2022-12-27T14:16:42.922Z,52.83
2022-12-27T14:19:21.687Z,52.72
2022-12-27T14:22:17.926Z,52.97
2022-12-27T14:24:50.576Z,53.64
2022-12-27T14:27:36.188Z,53.84
2022-12-27T14:30:05.904Z,54.03
2022-12-27T14:32:32.575Z,54.15
2022-12-27T14:35:02.391Z,53.68
2022-12-27T14:37:38.382Z,54.50
2022-12-27T14:40:20.421Z,54.42
2022-12-27T14:43:06.423Z,54.29
2022-12-27T14:45:45.352Z,53.98
2022-12-27T14:48:19.660Z,53.52
2022-12-27T14:51:08.104Z,53.63
2022-12-27T14:53:49.860Z,53.00
2022-12-27T14:56:22.543Z,53.91
2022-12-27T14:58:54.672Z,53.51
2022-12-27T15:01:21.493Z,53.43
2022-12-27T15:03:54.645Z,53.62
2022-12-27T15:06:24.424Z,53.77
2022-12-27T15:08:54.057Z,54.47
2022-12-27T15:11:29.782Z,54.12
2022-12-27T15:14:02.591Z,55.39
2022-12-27T15:16:48.295Z,56.06
2022-12-27T15:19:39.771Z,56.58
2022-12-27T15:22:10.092Z,56.55
2022-12-27T15:24:36.669Z,56.57
2022-12-27T15:27:03.255Z,57.44
2022-12-27T15:29:35.832Z,57.32
2022-12-27T15:32:20.811Z,57.49
2022-12-27T15:34:57.036Z,58.40
2022-12-27T15:37:42.436Z,58.41
2022-12-27T15:40:21.345Z,58.21
2022-12-27T15:42:54.546Z,58.19
2022-12-27T15:45:21.013Z,58.90
2022-12-27T15:48:06.105Z,58.55
2022-12-27T15:50:32.712Z,59.32
2022-12-27T15:53:16.919Z,59.72
2022-12-27T15:56:02.452Z,59.36
2022-12-27T15:58:29.252Z,59.09
2022-12-27T16:01:17.911Z,58.36
2022-12-27T16:03:51.264Z,57.94
2022-12-27T16:06:36.170Z,57.80
2022-12-27T16:09:21.186Z,57.55
2022-12-27T16:12:06.894Z,57.64
2022-12-27T16:14:34.770Z,58.16
2022-12-27T16:17:24.517Z,58.90
2022-12-27T16:20:00.641Z,58.74
2022-12-27T16:22:32.803Z,58.76
2022-12-27T16:25:05.600Z,59.14
2022-12-27T16:27:32.884Z,59.56
2022-12-27T16:29:59.773Z,59.84
2022-12-27T16:32:28.403Z,59.82
2022-12-27T16:34:57.709Z,59.92
2022-12-27T16:37:24.379Z,60.26
2022-12-27T16:39:54.209Z,59.98
2022-12-27T16:42:27.695Z,59.92
2022-12-27T16:44:54.264Z,60.02
2022-12-27T16:47:40.048Z,59.94
2022-12-27T16:50:35.978Z,60.07
2022-12-27T16:53:14.963Z,60.71
2022-12-27T16:55:48.035Z,60.23
2022-12-27T16:58:24.127Z,60.42
2022-12-27T17:00:52.085Z,61.09
2022-12-27T17:03:21.197Z,61.09
2022-12-27T17:06:21.592Z,61.15
2022-12-27T17:08:36.531Z,60.88
2022-12-27T17:11:22.747Z,61.48
2022-12-27T17:13:55.905Z,60.98
2022-12-27T17:16:27.280Z,60.86
2022-12-27T17:18:54.097Z,61.28
2022-12-27T17:21:29.699Z,61.09
2022-12-27T17:24:01.144Z,60.59
2022-12-27T17:26:46.607Z,60.42
2022-12-27T17:29:31.645Z,60.59
2022-12-27T17:32:09.177Z,61.04
2022-12-27T17:34:51.550Z,61.17
2022-12-27T17:37:24.547Z,61.27
2022-12-27T17:39:57.206Z,61.40
2022-12-27T17:42:50.478Z,62.18
2022-12-27T17:45:31.087Z,62.04
2022-12-27T17:48:09.333Z,61.96
2022-12-27T17:50:37.198Z,62.13
2022-12-27T17:53:22.593Z,62.54
2022-12-27T17:56:20.171Z,62.46
2022-12-27T17:58:46.750Z,62.73
2022-12-27T18:01:13.849Z,62.79
2022-12-27T18:03:43.243Z,62.72
2022-12-27T18:06:10.620Z,62.97
2022-12-27T18:08:38.951Z,62.88
2022-12-27T18:11:05.959Z,63.68
2022-12-27T18:13:38.005Z,63.79
2022-12-27T18:16:16.965Z,63.48
2022-12-27T18:18:47.453Z,63.85
2022-12-27T18:21:22.248Z,63.68
2022-12-27T18:23:52.727Z,64.14
2022-12-27T18:26:21.280Z,63.79
2022-12-27T18:28:48.114Z,63.53
2022-12-27T18:31:47.831Z,63.69
2022-12-27T18:34:14.381Z,63.36
2022-12-27T18:36:49.494Z,63.15
2022-12-27T18:39:16.027Z,63.17
2022-12-27T18:41:49.980Z,62.76
2022-12-27T18:44:26.476Z,62.71
2022-12-27T18:46:55.327Z,62.64
2022-12-27T18:49:30.963Z,62.58
2022-12-27T18:51:58.117Z,62.98
2022-12-27T18:54:27.550Z,62.79
2022-12-27T18:56:54.586Z,62.83
2022-12-27T18:59:28.989Z,62.30
2022-12-27T19:02:02.276Z,63.20
2022-12-27T19:04:28.901Z,62.93
2022-12-27T19:07:05.904Z,63.80
2022-12-27T19:09:52.873Z,63.98
2022-12-27T19:12:31.042Z,63.95
2022-12-27T19:14:57.724Z,64.17
2022-12-27T19:17:26.801Z,64.41
2022-12-27T19:19:58.144Z,64.35
2022-12-27T19:22:30.396Z,64.76
2022-12-27T19:25:03.632Z,64.55
2022-12-27T19:27:30.556Z,64.21
2022-12-27T19:29:57.378Z,64.53
2022-12-27T19:32:34.371Z,64.88
2022-12-27T19:35:02.529Z,64.47
2022-12-27T19:37:30.157Z,63.97
2022-12-27T19:40:00.173Z,64.38
2022-12-27T19:42:35.231Z,63.71
2022-12-27T19:45:05.547Z,63.84
2022-12-27T19:47:42.240Z,63.62
2022-12-27T19:50:10.004Z,63.64
2022-12-27T19:52:37.045Z,64.10
2022-12-27T19:55:06.497Z,63.84
2022-12-27T19:57:33.654Z,63.88
2022-12-27T20:00:01.586Z,63.95
2022-12-27T20:02:32.041Z,63.71
2022-12-27T20:05:01.538Z,63.65
2022-12-27T20:07:28.358Z,63.96
2022-12-27T20:09:55.060Z,63.88
2022-12-27T20:12:24.815Z,63.52
2022-12-27T20:14:51.492Z,63.55
2022-12-27T20:17:18.004Z,62.94
2022-12-27T20:19:44.961Z,63.27
2022-12-27T20:22:11.467Z,63.31
2022-12-27T20:24:38.028Z,63.20
2022-12-27T20:27:05.192Z,63.08
2022-12-27T20:29:31.813Z,63.58
2022-12-27T20:31:58.536Z,62.47
2022-12-27T20:34:25.219Z,61.99
2022-12-27T20:36:55.514Z,62.08
2022-12-27T20:39:22.277Z,62.48
2022-12-27T20:41:48.842Z,62.13
2022-12-27T20:44:15.416Z,62.81
2022-12-27T20:46:42.140Z,62.92
2022-12-27T20:49:08.780Z,62.90
2022-12-27T20:51:35.353Z,62.54
2022-12-27T20:54:02.927Z,62.61
2022-12-27T20:56:29.669Z,62.82
2022-12-27T20:58:56.341Z,62.05
2022-12-27T21:01:24.316Z,62.41
2022-12-27T21:03:53.831Z,62.42
2022-12-27T21:06:21.499Z,61.92
2022-12-27T21:08:54.428Z,61.89
2022-12-27T21:11:24.393Z,61.71
2022-12-27T21:13:51.166Z,62.13
2022-12-27T21:16:25.737Z,62.24
2022-12-27T21:18:52.629Z,62.71
2022-12-27T21:21:20.473Z,62.86
2022-12-27T21:23:47.595Z,63.08
2022-12-27T21:26:15.700Z,62.58
2022-12-27T21:28:42.777Z,63.25
2022-12-27T21:31:10.235Z,62.88
2022-12-27T21:33:38.528Z,63.06
2022-12-27T21:36:10.743Z,62.70
2022-12-27T21:38:37.749Z,62.32
2022-12-27T21:41:05.654Z,63.09
2022-12-27T21:43:33.413Z,62.41
2022-12-27T21:46:04.156Z,62.58
2022-12-27T21:48:34.759Z,62.64
2022-12-27T21:51:14.786Z,61.97
2022-12-27T21:53:42.207Z,62.94
2022-12-27T21:56:11.632Z,63.11
2022-12-27T21:58:39.129Z,63.01
2022-12-27T22:01:08.878Z,62.81
2022-12-27T22:03:37.610Z,62.22
2022-12-27T22:06:14.616Z,62.56
2022-12-27T22:08:42.073Z,62.20
2022-12-27T22:11:09.104Z,62.78
2022-12-27T22:13:36.263Z,62.05
2022-12-27T22:16:04.422Z,62.36
2022-12-27T22:18:33.855Z,61.60
2022-12-27T22:21:01.514Z,61.85
2022-12-27T22:23:31.670Z,62.16
2022-12-27T22:25:58.457Z,61.73
2022-12-27T22:28:25.491Z,62.12
2022-12-27T22:30:52.182Z,61.80
2022-12-27T22:33:18.875Z,61.92
2022-12-27T22:35:45.501Z,62.01
2022-12-27T22:38:12.002Z,62.15
2022-12-27T22:40:45.997Z,61.67
2022-12-27T22:43:13.997Z,62.41
2022-12-27T22:45:42.609Z,62.01
2022-12-27T22:48:09.340Z,62.03
2022-12-27T22:50:37.335Z,62.15
2022-12-27T22:53:04.025Z,62.33
2022-12-27T22:55:30.984Z,62.30
2022-12-27T22:57:57.565Z,62.32
2022-12-27T23:00:24.356Z,62.01
2022-12-27T23:02:51.138Z,62.17
2022-12-27T23:05:17.805Z,61.97
2022-12-27T23:08:04.720Z,62.62
2022-12-27T23:10:31.464Z,61.87
2022-12-27T23:13:01.007Z,61.96
2022-12-27T23:15:27.586Z,62.47
2022-12-27T23:17:54.796Z,62.74
2022-12-27T23:20:21.619Z,62.75
2022-12-27T23:22:48.269Z,62.82
2022-12-27T23:25:14.873Z,63.27
2022-12-27T23:27:41.375Z,63.12
2022-12-27T23:30:08.194Z,63.54
2022-12-27T23:32:34.758Z,63.31
2022-12-27T23:35:01.320Z,63.32
2022-12-27T23:37:27.951Z,63.95
2022-12-27T23:39:54.669Z,63.88
2022-12-27T23:42:21.583Z,63.91
2022-12-27T23:44:48.188Z,63.71
2022-12-27T23:47:15.867Z,63.53
2022-12-27T23:49:45.421Z,64.48
2022-12-27T23:52:14.791Z,64.59
2022-12-27T23:54:41.549Z,64.99
2022-12-27T23:57:20.194Z,65.14
2022-12-27T23:59:49.507Z,65.45
